sensor_id;sensor_type;location;lat;lon;timestamp;temperature;humidity
2999;DHT22;1509;51.964;7.628;2023-11-18T00:01:23;2.00;99.90
2999;DHT22;1509;51.964;7.628;2023-11-18T00:03:49;2.00;99.90
2999;DHT22;1509;51.964;7.628;2023-11-18T00:06:15;1.90;99.90
2999;DHT22;1509;51.964;7.628;2023-11-18T00:08:40;1.80;99.90
2999;DHT22;1509;51.964;7.628;2023-11-18T00:11:06;1.80;99.90
2999;DHT22;1509;51.964;7.628;2023-11-18T00:13:32;1.80;99.90
2999;DHT22;1509;51.964;7.628;2023-11-18T00:15:58;1.70;99.90
2999;DHT22;1509;51.964;7.628;2023-11-18T00:18:23;1.70;99.90
2999;DHT22;1509;51.964;7.628;2023-11-18T00:20:49;1.70;99.90
2999;DHT22;1509;51.964;7.628;2023-11-18T00:23:16;1.70;99.90
2999;DHT22;1509;51.964;7.628;2023-11-18T00:25:42;1.70;99.90
2999;DHT22;1509;51.964;7.628;2023-11-18T00:28:10;1.70;99.90
2999;DHT22;1509;51.964;7.628;2023-11-18T00:30:37;1.70;99.90
2999;DHT22;1509;51.964;7.628;2023-11-18T00:33:02;1.80;99.90
2999;DHT22;1509;51.964;7.628;2023-11-18T00:35:28;1.80;99.90
2999;DHT22;1509;51.964;7.628;2023-11-18T00:38:00;1.80;99.90
2999;DHT22;1509;51.964;7.628;2023-11-18T00:40:26;1.80;99.90
2999;DHT22;1509;51.964;7.628;2023-11-18T00:42:55;1.80;99.90
2999;DHT22;1509;51.964;7.628;2023-11-18T00:45:21;1.80;99.90
2999;DHT22;1509;51.964;7.628;2023-11-18T00:47:46;1.80;99.90
2999;DHT22;1509;51.964;7.628;2023-11-18T00:50:12;1.80;99.90
2999;DHT22;1509;51.964;7.628;2023-11-18T00:52:39;1.80;99.90
2999;DHT22;1509;51.964;7.628;2023-11-18T00:55:07;1.80;99.90
2999;DHT22;1509;51.964;7.628;2023-11-18T00:57:33;1.80;99.90
2999;DHT22;1509;51.964;7.628;2023-11-18T00:59:59;1.80;99.90
2999;DHT22;1509;51.964;7.628;2023-11-18T01:02:24;1.70;99.90
2999;DHT22;1509;51.964;7.628;2023-11-18T01:04:50;1.80;99.90
2999;DHT22;1509;51.964;7.628;2023-11-18T01:07:16;1.80;99.90
2999;DHT22;1509;51.964;7.628;2023-11-18T01:09:41;1.80;99.90
2999;DHT22;1509;51.964;7.628;2023-11-18T01:12:07;1.90;99.90
2999;DHT22;1509;51.964;7.628;2023-11-18T01:14:38;1.90;99.90
2999;DHT22;1509;51.964;7.628;2023-11-18T01:17:05;1.80;99.90
2999;DHT22;1509;51.964;7.628;2023-11-18T01:19:31;1.90;99.90
2999;DHT22;1509;51.964;7.628;2023-11-18T01:21:57;1.90;99.90
2999;DHT22;1509;51.964;7.628;2023-11-18T01:24:22;2.00;99.90
2999;DHT22;1509;51.964;7.628;2023-11-18T01:26:48;1.90;99.90
2999;DHT22;1509;51.964;7.628;2023-11-18T01:29:14;1.90;99.90
2999;DHT22;1509;51.964;7.628;2023-11-18T01:31:40;1.90;99.90
2999;DHT22;1509;51.964;7.628;2023-11-18T01:34:09;1.90;99.90
2999;DHT22;1509;51.964;7.628;2023-11-18T01:36:35;1.90;99.90
2999;DHT22;1509;51.964;7.628;2023-11-18T01:39:00;2.00;99.90
2999;DHT22;1509;51.964;7.628;2023-11-18T01:41:26;2.00;99.90
2999;DHT22;1509;51.964;7.628;2023-11-18T01:43:51;2.00;99.90
2999;DHT22;1509;51.964;7.628;2023-11-18T01:46:18;2.00;99.90
2999;DHT22;1509;51.964;7.628;2023-11-18T01:48:45;2.00;99.90
2999;DHT22;1509;51.964;7.628;2023-11-18T01:51:11;2.00;99.90
2999;DHT22;1509;51.964;7.628;2023-11-18T01:53:37;2.00;99.90
2999;DHT22;1509;51.964;7.628;2023-11-18T01:56:07;1.90;99.90
2999;DHT22;1509;51.964;7.628;2023-11-18T01:58:34;1.80;99.90
2999;DHT22;1509;51.964;7.628;2023-11-18T02:01:02;1.80;99.90
2999;DHT22;1509;51.964;7.628;2023-11-18T02:03:28;1.90;99.90
2999;DHT22;1509;51.964;7.628;2023-11-18T02:05:56;1.90;99.90
2999;DHT22;1509;51.964;7.628;2023-11-18T02:08:22;1.90;99.90
2999;DHT22;1509;51.964;7.628;2023-11-18T02:11:01;1.90;99.90
2999;DHT22;1509;51.964;7.628;2023-11-18T02:13:34;1.90;99.90
2999;DHT22;1509;51.964;7.628;2023-11-18T02:16:04;1.90;99.90
2999;DHT22;1509;51.964;7.628;2023-11-18T02:18:32;1.90;99.90
2999;DHT22;1509;51.964;7.628;2023-11-18T02:20:59;1.80;99.90
2999;DHT22;1509;51.964;7.628;2023-11-18T02:23:25;1.80;99.90
2999;DHT22;1509;51.964;7.628;2023-11-18T02:25:52;1.70;99.90
2999;DHT22;1509;51.964;7.628;2023-11-18T02:28:18;1.70;99.90
2999;DHT22;1509;51.964;7.628;2023-11-18T02:30:45;1.70;99.90
2999;DHT22;1509;51.964;7.628;2023-11-18T02:33:22;1.60;99.90
2999;DHT22;1509;51.964;7.628;2023-11-18T02:35:55;1.50;99.90
2999;DHT22;1509;51.964;7.628;2023-11-18T02:38:33;1.50;99.90
2999;DHT22;1509;51.964;7.628;2023-11-18T02:41:06;1.50;99.90
2999;DHT22;1509;51.964;7.628;2023-11-18T02:43:35;1.60;99.90
2999;DHT22;1509;51.964;7.628;2023-11-18T02:46:04;1.60;99.90
2999;DHT22;1509;51.964;7.628;2023-11-18T02:48:30;1.60;99.90
2999;DHT22;1509;51.964;7.628;2023-11-18T02:50:58;1.60;99.90
2999;DHT22;1509;51.964;7.628;2023-11-18T02:53:24;1.60;99.90
2999;DHT22;1509;51.964;7.628;2023-11-18T02:55:50;1.60;99.90
2999;DHT22;1509;51.964;7.628;2023-11-18T02:58:18;1.70;99.90
2999;DHT22;1509;51.964;7.628;2023-11-18T03:00:43;1.70;99.90
2999;DHT22;1509;51.964;7.628;2023-11-18T03:03:10;1.70;99.90
2999;DHT22;1509;51.964;7.628;2023-11-18T03:05:36;1.70;99.90
2999;DHT22;1509;51.964;7.628;2023-11-18T03:08:02;1.60;99.90
2999;DHT22;1509;51.964;7.628;2023-11-18T03:10:31;1.50;99.90
2999;DHT22;1509;51.964;7.628;2023-11-18T03:13:00;1.50;99.90
2999;DHT22;1509;51.964;7.628;2023-11-18T03:15:26;1.60;99.90
2999;DHT22;1509;51.964;7.628;2023-11-18T03:17:52;1.60;99.90
2999;DHT22;1509;51.964;7.628;2023-11-18T03:20:21;1.60;99.90
2999;DHT22;1509;51.964;7.628;2023-11-18T03:22:49;1.70;99.90
2999;DHT22;1509;51.964;7.628;2023-11-18T03:25:15;1.70;99.90
2999;DHT22;1509;51.964;7.628;2023-11-18T03:27:42;1.70;99.90
2999;DHT22;1509;51.964;7.628;2023-11-18T03:30:08;1.80;99.90
2999;DHT22;1509;51.964;7.628;2023-11-18T03:32:35;1.80;99.90
2999;DHT22;1509;51.964;7.628;2023-11-18T03:35:05;1.80;99.90
2999;DHT22;1509;51.964;7.628;2023-11-18T03:37:37;1.80;99.90
2999;DHT22;1509;51.964;7.628;2023-11-18T03:40:07;1.80;99.90
2999;DHT22;1509;51.964;7.628;2023-11-18T03:42:33;1.80;99.90
2999;DHT22;1509;51.964;7.628;2023-11-18T03:44:58;1.80;99.90
2999;DHT22;1509;51.964;7.628;2023-11-18T03:47:24;1.70;99.90
2999;DHT22;1509;51.964;7.628;2023-11-18T03:49:50;1.70;99.90
2999;DHT22;1509;51.964;7.628;2023-11-18T03:52:16;1.60;99.90
2999;DHT22;1509;51.964;7.628;2023-11-18T03:54:42;1.60;99.90
2999;DHT22;1509;51.964;7.628;2023-11-18T03:57:07;1.70;99.90
2999;DHT22;1509;51.964;7.628;2023-11-18T03:59:33;1.70;99.90
2999;DHT22;1509;51.964;7.628;2023-11-18T04:01:58;1.70;99.90
2999;DHT22;1509;51.964;7.628;2023-11-18T04:04:24;1.60;99.90
2999;DHT22;1509;51.964;7.628;2023-11-18T04:06:49;1.70;99.90
2999;DHT22;1509;51.964;7.628;2023-11-18T04:09:15;1.60;99.90
2999;DHT22;1509;51.964;7.628;2023-11-18T04:11:41;1.60;99.90
2999;DHT22;1509;51.964;7.628;2023-11-18T04:14:10;1.60;99.90
2999;DHT22;1509;51.964;7.628;2023-11-18T04:16:36;1.60;99.90
2999;DHT22;1509;51.964;7.628;2023-11-18T04:19:03;1.60;99.90
2999;DHT22;1509;51.964;7.628;2023-11-18T04:21:29;1.60;99.90
2999;DHT22;1509;51.964;7.628;2023-11-18T04:23:55;1.60;99.90
2999;DHT22;1509;51.964;7.628;2023-11-18T04:26:20;1.60;99.90
2999;DHT22;1509;51.964;7.628;2023-11-18T04:28:46;1.60;99.90
2999;DHT22;1509;51.964;7.628;2023-11-18T04:31:11;1.60;99.90
2999;DHT22;1509;51.964;7.628;2023-11-18T04:33:37;1.60;99.90
2999;DHT22;1509;51.964;7.628;2023-11-18T04:36:03;1.70;99.90
2999;DHT22;1509;51.964;7.628;2023-11-18T04:38:30;1.70;99.90
2999;DHT22;1509;51.964;7.628;2023-11-18T04:40:57;1.70;99.90
2999;DHT22;1509;51.964;7.628;2023-11-18T04:43:23;1.70;99.90
2999;DHT22;1509;51.964;7.628;2023-11-18T04:45:49;1.70;99.90
2999;DHT22;1509;51.964;7.628;2023-11-18T04:48:14;1.80;99.90
2999;DHT22;1509;51.964;7.628;2023-11-18T04:50:41;1.80;99.90
2999;DHT22;1509;51.964;7.628;2023-11-18T04:53:07;1.80;99.90
2999;DHT22;1509;51.964;7.628;2023-11-18T04:55:37;1.80;99.90
2999;DHT22;1509;51.964;7.628;2023-11-18T04:58:03;1.90;99.90
2999;DHT22;1509;51.964;7.628;2023-11-18T05:00:31;1.80;99.90
2999;DHT22;1509;51.964;7.628;2023-11-18T05:02:58;1.80;99.90
2999;DHT22;1509;51.964;7.628;2023-11-18T05:05:23;1.90;99.90
2999;DHT22;1509;51.964;7.628;2023-11-18T05:07:49;1.90;99.90
2999;DHT22;1509;51.964;7.628;2023-11-18T05:10:14;1.90;99.90
2999;DHT22;1509;51.964;7.628;2023-11-18T05:12:40;1.80;99.90
2999;DHT22;1509;51.964;7.628;2023-11-18T05:15:09;1.80;99.90
2999;DHT22;1509;51.964;7.628;2023-11-18T05:17:35;1.90;99.90
2999;DHT22;1509;51.964;7.628;2023-11-18T05:20:04;1.90;99.90
2999;DHT22;1509;51.964;7.628;2023-11-18T05:22:30;1.90;99.90
2999;DHT22;1509;51.964;7.628;2023-11-18T05:24:57;1.90;99.90
2999;DHT22;1509;51.964;7.628;2023-11-18T05:27:23;1.90;99.90
2999;DHT22;1509;51.964;7.628;2023-11-18T05:29:49;1.80;99.90
2999;DHT22;1509;51.964;7.628;2023-11-18T05:32:20;1.70;99.90
2999;DHT22;1509;51.964;7.628;2023-11-18T05:34:46;1.60;99.90
2999;DHT22;1509;51.964;7.628;2023-11-18T05:37:12;1.70;99.90
2999;DHT22;1509;51.964;7.628;2023-11-18T05:39:38;1.70;99.90
2999;DHT22;1509;51.964;7.628;2023-11-18T05:42:09;1.70;99.90
2999;DHT22;1509;51.964;7.628;2023-11-18T05:44:37;1.70;99.90
2999;DHT22;1509;51.964;7.628;2023-11-18T05:47:07;1.70;99.90
2999;DHT22;1509;51.964;7.628;2023-11-18T05:49:34;1.70;99.90
2999;DHT22;1509;51.964;7.628;2023-11-18T05:51:59;1.80;99.90
2999;DHT22;1509;51.964;7.628;2023-11-18T05:54:25;1.80;99.90
2999;DHT22;1509;51.964;7.628;2023-11-18T05:56:52;1.80;99.90
2999;DHT22;1509;51.964;7.628;2023-11-18T05:59:19;1.80;99.90
2999;DHT22;1509;51.964;7.628;2023-11-18T06:01:45;1.90;99.90
2999;DHT22;1509;51.964;7.628;2023-11-18T06:04:10;1.90;99.90
2999;DHT22;1509;51.964;7.628;2023-11-18T06:06:36;2.00;99.90
2999;DHT22;1509;51.964;7.628;2023-11-18T06:09:02;2.00;99.90
2999;DHT22;1509;51.964;7.628;2023-11-18T06:11:34;2.10;99.90
2999;DHT22;1509;51.964;7.628;2023-11-18T06:14:01;2.10;99.90
2999;DHT22;1509;51.964;7.628;2023-11-18T06:16:27;2.20;99.90
2999;DHT22;1509;51.964;7.628;2023-11-18T06:18:57;2.10;99.90
2999;DHT22;1509;51.964;7.628;2023-11-18T06:21:25;2.10;99.90
2999;DHT22;1509;51.964;7.628;2023-11-18T06:23:54;2.10;99.90
2999;DHT22;1509;51.964;7.628;2023-11-18T06:26:20;2.10;99.90
2999;DHT22;1509;51.964;7.628;2023-11-18T06:28:48;2.00;99.90
2999;DHT22;1509;51.964;7.628;2023-11-18T06:31:17;2.00;99.90
2999;DHT22;1509;51.964;7.628;2023-11-18T06:33:44;2.00;99.90
2999;DHT22;1509;51.964;7.628;2023-11-18T06:36:17;2.00;99.90
2999;DHT22;1509;51.964;7.628;2023-11-18T06:38:43;2.00;99.90
2999;DHT22;1509;51.964;7.628;2023-11-18T06:41:09;2.00;99.90
2999;DHT22;1509;51.964;7.628;2023-11-18T06:43:38;1.90;99.90
2999;DHT22;1509;51.964;7.628;2023-11-18T06:46:25;2.00;99.90
2999;DHT22;1509;51.964;7.628;2023-11-18T06:48:52;2.10;99.90
2999;DHT22;1509;51.964;7.628;2023-11-18T06:51:23;2.10;99.90
2999;DHT22;1509;51.964;7.628;2023-11-18T06:53:50;2.20;99.90
2999;DHT22;1509;51.964;7.628;2023-11-18T06:56:16;2.20;99.90
2999;DHT22;1509;51.964;7.628;2023-11-18T06:58:42;2.10;99.90
2999;DHT22;1509;51.964;7.628;2023-11-18T07:01:08;1.90;99.90
2999;DHT22;1509;51.964;7.628;2023-11-18T07:03:35;1.90;99.90
2999;DHT22;1509;51.964;7.628;2023-11-18T07:06:02;1.90;99.90
2999;DHT22;1509;51.964;7.628;2023-11-18T07:08:28;2.00;99.90
2999;DHT22;1509;51.964;7.628;2023-11-18T07:10:53;2.10;99.90
2999;DHT22;1509;51.964;7.628;2023-11-18T07:13:19;2.20;99.90
2999;DHT22;1509;51.964;7.628;2023-11-18T07:15:49;2.20;99.90
2999;DHT22;1509;51.964;7.628;2023-11-18T07:18:14;2.30;99.90
2999;DHT22;1509;51.964;7.628;2023-11-18T07:20:41;2.30;99.90
2999;DHT22;1509;51.964;7.628;2023-11-18T07:23:07;2.30;99.90
2999;DHT22;1509;51.964;7.628;2023-11-18T07:25:34;2.30;99.90
2999;DHT22;1509;51.964;7.628;2023-11-18T07:28:00;2.40;99.90
2999;DHT22;1509;51.964;7.628;2023-11-18T07:30:26;2.40;99.90
2999;DHT22;1509;51.964;7.628;2023-11-18T07:32:51;2.40;99.90
2999;DHT22;1509;51.964;7.628;2023-11-18T07:35:17;2.40;99.90
2999;DHT22;1509;51.964;7.628;2023-11-18T07:37:43;2.50;99.90
2999;DHT22;1509;51.964;7.628;2023-11-18T07:40:09;2.50;99.90
2999;DHT22;1509;51.964;7.628;2023-11-18T07:42:37;2.60;99.90
2999;DHT22;1509;51.964;7.628;2023-11-18T07:45:04;2.60;99.90
2999;DHT22;1509;51.964;7.628;2023-11-18T07:47:30;2.60;99.90
2999;DHT22;1509;51.964;7.628;2023-11-18T07:49:59;2.70;99.90
2999;DHT22;1509;51.964;7.628;2023-11-18T07:52:28;2.70;99.90
2999;DHT22;1509;51.964;7.628;2023-11-18T07:54:54;2.80;99.90
2999;DHT22;1509;51.964;7.628;2023-11-18T07:57:20;2.80;99.90
2999;DHT22;1509;51.964;7.628;2023-11-18T07:59:45;3.00;99.90
2999;DHT22;1509;51.964;7.628;2023-11-18T08:02:11;3.10;99.90
2999;DHT22;1509;51.964;7.628;2023-11-18T08:04:40;3.10;99.90
2999;DHT22;1509;51.964;7.628;2023-11-18T08:07:07;3.00;99.90
2999;DHT22;1509;51.964;7.628;2023-11-18T08:09:33;3.10;99.90
2999;DHT22;1509;51.964;7.628;2023-11-18T08:11:58;3.10;99.90
2999;DHT22;1509;51.964;7.628;2023-11-18T08:14:24;3.10;99.90
2999;DHT22;1509;51.964;7.628;2023-11-18T08:16:50;3.10;99.90
2999;DHT22;1509;51.964;7.628;2023-11-18T08:19:16;3.30;99.90
2999;DHT22;1509;51.964;7.628;2023-11-18T08:21:42;3.30;99.90
2999;DHT22;1509;51.964;7.628;2023-11-18T08:24:08;3.40;99.90
2999;DHT22;1509;51.964;7.628;2023-11-18T08:26:37;3.50;99.90
2999;DHT22;1509;51.964;7.628;2023-11-18T08:29:02;3.40;99.90
2999;DHT22;1509;51.964;7.628;2023-11-18T08:31:28;3.50;99.90
2999;DHT22;1509;51.964;7.628;2023-11-18T08:33:54;3.50;99.90
2999;DHT22;1509;51.964;7.628;2023-11-18T08:36:20;3.60;99.90
2999;DHT22;1509;51.964;7.628;2023-11-18T08:38:48;3.60;99.90
2999;DHT22;1509;51.964;7.628;2023-11-18T08:41:14;3.70;99.90
2999;DHT22;1509;51.964;7.628;2023-11-18T08:43:40;3.70;99.90
2999;DHT22;1509;51.964;7.628;2023-11-18T08:46:06;3.70;99.90
2999;DHT22;1509;51.964;7.628;2023-11-18T08:48:33;3.70;99.90
2999;DHT22;1509;51.964;7.628;2023-11-18T08:50:59;3.70;99.90
2999;DHT22;1509;51.964;7.628;2023-11-18T08:53:27;3.70;99.90
2999;DHT22;1509;51.964;7.628;2023-11-18T08:55:53;3.60;99.90
2999;DHT22;1509;51.964;7.628;2023-11-18T08:58:22;3.70;99.90
2999;DHT22;1509;51.964;7.628;2023-11-18T09:00:50;3.70;99.90
2999;DHT22;1509;51.964;7.628;2023-11-18T09:03:32;3.60;99.90
2999;DHT22;1509;51.964;7.628;2023-11-18T09:06:06;3.60;99.90
2999;DHT22;1509;51.964;7.628;2023-11-18T09:08:37;3.70;99.90
2999;DHT22;1509;51.964;7.628;2023-11-18T09:11:07;3.70;99.90
2999;DHT22;1509;51.964;7.628;2023-11-18T09:13:34;3.70;99.90
2999;DHT22;1509;51.964;7.628;2023-11-18T09:16:06;3.70;99.90
2999;DHT22;1509;51.964;7.628;2023-11-18T09:18:36;3.80;99.90
2999;DHT22;1509;51.964;7.628;2023-11-18T09:21:06;3.90;99.90
2999;DHT22;1509;51.964;7.628;2023-11-18T09:23:33;4.00;99.90
2999;DHT22;1509;51.964;7.628;2023-11-18T09:26:00;4.00;99.90
2999;DHT22;1509;51.964;7.628;2023-11-18T09:28:27;4.00;99.90
2999;DHT22;1509;51.964;7.628;2023-11-18T09:30:58;3.90;99.90
2999;DHT22;1509;51.964;7.628;2023-11-18T09:33:26;3.90;99.90
2999;DHT22;1509;51.964;7.628;2023-11-18T09:36:02;4.00;99.90
2999;DHT22;1509;51.964;7.628;2023-11-18T09:38:29;4.10;99.90
2999;DHT22;1509;51.964;7.628;2023-11-18T09:40:58;4.10;99.90
2999;DHT22;1509;51.964;7.628;2023-11-18T09:43:35;4.10;99.90
2999;DHT22;1509;51.964;7.628;2023-11-18T09:46:17;4.20;99.90
2999;DHT22;1509;51.964;7.628;2023-11-18T09:48:57;4.30;99.90
2999;DHT22;1509;51.964;7.628;2023-11-18T09:51:33;4.40;99.90
2999;DHT22;1509;51.964;7.628;2023-11-18T09:54:04;4.50;99.90
2999;DHT22;1509;51.964;7.628;2023-11-18T10:01:50;4.80;99.90
2999;DHT22;1509;51.964;7.628;2023-11-18T10:04:20;4.90;99.90
2999;DHT22;1509;51.964;7.628;2023-11-18T10:06:49;4.90;99.90
2999;DHT22;1509;51.964;7.628;2023-11-18T10:09:19;5.10;99.90
2999;DHT22;1509;51.964;7.628;2023-11-18T10:11:54;5.10;99.90
2999;DHT22;1509;51.964;7.628;2023-11-18T10:14:26;5.20;99.90
2999;DHT22;1509;51.964;7.628;2023-11-18T10:16:52;5.20;99.90
2999;DHT22;1509;51.964;7.628;2023-11-18T10:19:19;5.30;99.90
2999;DHT22;1509;51.964;7.628;2023-11-18T10:21:45;5.30;99.90
2999;DHT22;1509;51.964;7.628;2023-11-18T10:24:15;5.40;99.90
2999;DHT22;1509;51.964;7.628;2023-11-18T10:26:46;5.50;99.90
2999;DHT22;1509;51.964;7.628;2023-11-18T10:29:11;5.40;99.90
2999;DHT22;1509;51.964;7.628;2023-11-18T10:31:39;5.40;99.90
2999;DHT22;1509;51.964;7.628;2023-11-18T10:34:14;5.50;99.90
2999;DHT22;1509;51.964;7.628;2023-11-18T10:36:59;5.40;99.90
2999;DHT22;1509;51.964;7.628;2023-11-18T10:39:32;5.40;99.90
2999;DHT22;1509;51.964;7.628;2023-11-18T10:42:01;5.40;99.90
2999;DHT22;1509;51.964;7.628;2023-11-18T10:44:27;5.40;99.90
2999;DHT22;1509;51.964;7.628;2023-11-18T10:46:55;5.50;99.90
2999;DHT22;1509;51.964;7.628;2023-11-18T10:49:27;5.50;99.90
2999;DHT22;1509;51.964;7.628;2023-11-18T10:51:53;5.50;99.90
2999;DHT22;1509;51.964;7.628;2023-11-18T10:54:20;5.50;99.90
2999;DHT22;1509;51.964;7.628;2023-11-18T10:56:50;5.60;99.90
2999;DHT22;1509;51.964;7.628;2023-11-18T10:59:16;5.70;99.90
2999;DHT22;1509;51.964;7.628;2023-11-18T11:01:44;5.70;99.90
2999;DHT22;1509;51.964;7.628;2023-11-18T11:04:12;5.70;99.90
2999;DHT22;1509;51.964;7.628;2023-11-18T11:06:45;5.70;99.90
2999;DHT22;1509;51.964;7.628;2023-11-18T11:09:25;5.80;99.90
2999;DHT22;1509;51.964;7.628;2023-11-18T11:11:58;5.80;99.90
2999;DHT22;1509;51.964;7.628;2023-11-18T11:14:33;5.90;99.90
2999;DHT22;1509;51.964;7.628;2023-11-18T11:17:06;5.90;99.90
2999;DHT22;1509;51.964;7.628;2023-11-18T11:20:02;5.90;99.90
2999;DHT22;1509;51.964;7.628;2023-11-18T11:23:05;6.00;99.90
2999;DHT22;1509;51.964;7.628;2023-11-18T11:25:46;6.10;99.90
2999;DHT22;1509;51.964;7.628;2023-11-18T11:28:23;6.10;99.90
2999;DHT22;1509;51.964;7.628;2023-11-18T11:31:48;6.20;99.90
2999;DHT22;1509;51.964;7.628;2023-11-18T11:34:02;6.20;99.90
2999;DHT22;1509;51.964;7.628;2023-11-18T11:36:37;6.20;99.90
2999;DHT22;1509;51.964;7.628;2023-11-18T11:39:10;6.20;99.90
2999;DHT22;1509;51.964;7.628;2023-11-18T11:41:43;6.20;99.90
2999;DHT22;1509;51.964;7.628;2023-11-18T11:44:14;6.20;99.90
2999;DHT22;1509;51.964;7.628;2023-11-18T11:46:40;6.20;99.90
2999;DHT22;1509;51.964;7.628;2023-11-18T11:49:09;6.30;99.90
2999;DHT22;1509;51.964;7.628;2023-11-18T11:54:34;6.30;99.90
2999;DHT22;1509;51.964;7.628;2023-11-18T11:57:02;6.30;99.90
2999;DHT22;1509;51.964;7.628;2023-11-18T12:02:20;6.40;99.90
2999;DHT22;1509;51.964;7.628;2023-11-18T12:04:50;6.40;99.90
2999;DHT22;1509;51.964;7.628;2023-11-18T12:07:20;6.40;99.90
2999;DHT22;1509;51.964;7.628;2023-11-18T12:09:51;6.40;99.90
2999;DHT22;1509;51.964;7.628;2023-11-18T12:12:25;6.40;99.90
2999;DHT22;1509;51.964;7.628;2023-11-18T12:14:58;6.50;99.90
2999;DHT22;1509;51.964;7.628;2023-11-18T12:20:44;6.50;99.90
2999;DHT22;1509;51.964;7.628;2023-11-18T12:23:16;6.50;99.90
2999;DHT22;1509;51.964;7.628;2023-11-18T12:25:43;6.50;99.90
2999;DHT22;1509;51.964;7.628;2023-11-18T12:28:17;6.50;99.90
2999;DHT22;1509;51.964;7.628;2023-11-18T12:30:46;6.50;99.90
2999;DHT22;1509;51.964;7.628;2023-11-18T12:33:22;6.50;99.90
2999;DHT22;1509;51.964;7.628;2023-11-18T12:42:04;6.40;99.90
2999;DHT22;1509;51.964;7.628;2023-11-18T12:45:24;6.40;99.90
2999;DHT22;1509;51.964;7.628;2023-11-18T12:48:04;6.40;99.90
2999;DHT22;1509;51.964;7.628;2023-11-18T12:50:40;6.40;99.90
2999;DHT22;1509;51.964;7.628;2023-11-18T12:53:06;6.30;99.90
2999;DHT22;1509;51.964;7.628;2023-11-18T12:55:32;6.40;99.90
2999;DHT22;1509;51.964;7.628;2023-11-18T12:58:00;6.30;99.90
2999;DHT22;1509;51.964;7.628;2023-11-18T13:00:25;6.30;99.90
2999;DHT22;1509;51.964;7.628;2023-11-18T13:02:59;6.40;99.90
2999;DHT22;1509;51.964;7.628;2023-11-18T13:05:25;6.40;99.90
2999;DHT22;1509;51.964;7.628;2023-11-18T13:07:57;6.30;99.90
2999;DHT22;1509;51.964;7.628;2023-11-18T13:10:24;6.30;99.90
2999;DHT22;1509;51.964;7.628;2023-11-18T13:12:55;6.20;99.90
2999;DHT22;1509;51.964;7.628;2023-11-18T13:15:21;6.20;99.90
2999;DHT22;1509;51.964;7.628;2023-11-18T13:18:02;6.20;99.90
2999;DHT22;1509;51.964;7.628;2023-11-18T13:20:32;6.20;99.90
2999;DHT22;1509;51.964;7.628;2023-11-18T13:23:01;6.20;99.90
2999;DHT22;1509;51.964;7.628;2023-11-18T13:25:34;6.20;99.90
2999;DHT22;1509;51.964;7.628;2023-11-18T13:28:01;6.20;99.90
2999;DHT22;1509;51.964;7.628;2023-11-18T13:30:27;6.20;99.90
2999;DHT22;1509;51.964;7.628;2023-11-18T13:32:55;6.20;99.90
2999;DHT22;1509;51.964;7.628;2023-11-18T13:35:21;6.20;99.90
2999;DHT22;1509;51.964;7.628;2023-11-18T13:37:49;6.20;99.90
2999;DHT22;1509;51.964;7.628;2023-11-18T13:40:16;6.20;99.90
2999;DHT22;1509;51.964;7.628;2023-11-18T13:42:44;6.20;99.90
2999;DHT22;1509;51.964;7.628;2023-11-18T13:45:12;6.20;99.90
2999;DHT22;1509;51.964;7.628;2023-11-18T13:47:47;6.20;99.90
2999;DHT22;1509;51.964;7.628;2023-11-18T13:50:15;6.30;99.90
2999;DHT22;1509;51.964;7.628;2023-11-18T13:52:42;6.30;99.90
2999;DHT22;1509;51.964;7.628;2023-11-18T13:55:12;6.30;99.90
2999;DHT22;1509;51.964;7.628;2023-11-18T13:57:43;6.30;99.90
2999;DHT22;1509;51.964;7.628;2023-11-18T14:00:10;6.30;99.90
2999;DHT22;1509;51.964;7.628;2023-11-18T14:02:40;6.30;99.90
2999;DHT22;1509;51.964;7.628;2023-11-18T14:05:15;6.30;99.90
2999;DHT22;1509;51.964;7.628;2023-11-18T14:07:42;6.30;99.90
2999;DHT22;1509;51.964;7.628;2023-11-18T14:10:09;6.30;99.90
2999;DHT22;1509;51.964;7.628;2023-11-18T14:12:37;6.30;99.90
2999;DHT22;1509;51.964;7.628;2023-11-18T14:15:02;6.30;99.90
2999;DHT22;1509;51.964;7.628;2023-11-18T14:17:29;6.30;99.90
2999;DHT22;1509;51.964;7.628;2023-11-18T14:19:55;6.40;99.90
2999;DHT22;1509;51.964;7.628;2023-11-18T14:22:20;6.40;99.90
2999;DHT22;1509;51.964;7.628;2023-11-18T14:24:47;6.40;99.90
2999;DHT22;1509;51.964;7.628;2023-11-18T14:27:13;6.40;99.90
2999;DHT22;1509;51.964;7.628;2023-11-18T14:29:39;6.40;99.90
2999;DHT22;1509;51.964;7.628;2023-11-18T14:32:04;6.30;99.90
2999;DHT22;1509;51.964;7.628;2023-11-18T14:34:31;6.30;99.90
2999;DHT22;1509;51.964;7.628;2023-11-18T14:36:57;6.30;99.90
2999;DHT22;1509;51.964;7.628;2023-11-18T14:39:22;6.30;99.90
2999;DHT22;1509;51.964;7.628;2023-11-18T14:41:48;6.40;99.90
2999;DHT22;1509;51.964;7.628;2023-11-18T14:44:18;6.40;99.90
2999;DHT22;1509;51.964;7.628;2023-11-18T14:46:43;6.40;99.90
2999;DHT22;1509;51.964;7.628;2023-11-18T14:49:11;6.40;99.90
2999;DHT22;1509;51.964;7.628;2023-11-18T14:51:39;6.40;99.90
2999;DHT22;1509;51.964;7.628;2023-11-18T14:54:05;6.40;99.90
2999;DHT22;1509;51.964;7.628;2023-11-18T14:56:31;6.40;99.90
2999;DHT22;1509;51.964;7.628;2023-11-18T14:58:56;6.40;99.90
2999;DHT22;1509;51.964;7.628;2023-11-18T15:01:22;6.40;99.90
2999;DHT22;1509;51.964;7.628;2023-11-18T15:03:48;6.50;99.90
2999;DHT22;1509;51.964;7.628;2023-11-18T15:06:24;6.40;99.90
2999;DHT22;1509;51.964;7.628;2023-11-18T15:08:50;6.40;99.90
2999;DHT22;1509;51.964;7.628;2023-11-18T15:11:23;6.40;99.90
2999;DHT22;1509;51.964;7.628;2023-11-18T15:13:50;6.40;99.90
2999;DHT22;1509;51.964;7.628;2023-11-18T15:16:18;6.40;99.90
2999;DHT22;1509;51.964;7.628;2023-11-18T15:18:44;6.40;99.90
2999;DHT22;1509;51.964;7.628;2023-11-18T15:21:13;6.40;99.90
2999;DHT22;1509;51.964;7.628;2023-11-18T15:23:40;6.40;99.90
2999;DHT22;1509;51.964;7.628;2023-11-18T15:26:07;6.40;99.90
2999;DHT22;1509;51.964;7.628;2023-11-18T15:28:34;6.40;99.90
2999;DHT22;1509;51.964;7.628;2023-11-18T15:31:00;6.30;99.90
2999;DHT22;1509;51.964;7.628;2023-11-18T15:33:28;6.40;99.90
2999;DHT22;1509;51.964;7.628;2023-11-18T15:35:53;6.40;99.90
2999;DHT22;1509;51.964;7.628;2023-11-18T15:38:19;6.40;99.90
2999;DHT22;1509;51.964;7.628;2023-11-18T15:40:48;6.30;99.90
2999;DHT22;1509;51.964;7.628;2023-11-18T15:43:15;6.30;99.90
2999;DHT22;1509;51.964;7.628;2023-11-18T15:45:42;6.40;99.90
2999;DHT22;1509;51.964;7.628;2023-11-18T15:48:10;6.30;99.90
2999;DHT22;1509;51.964;7.628;2023-11-18T15:50:36;6.30;99.90
2999;DHT22;1509;51.964;7.628;2023-11-18T15:53:03;6.30;99.90
2999;DHT22;1509;51.964;7.628;2023-11-18T15:55:29;6.30;99.90
2999;DHT22;1509;51.964;7.628;2023-11-18T15:57:54;6.40;99.90
2999;DHT22;1509;51.964;7.628;2023-11-18T16:00:26;6.30;99.90
2999;DHT22;1509;51.964;7.628;2023-11-18T16:02:56;6.30;99.90
2999;DHT22;1509;51.964;7.628;2023-11-18T16:05:24;6.30;99.90
2999;DHT22;1509;51.964;7.628;2023-11-18T16:07:53;6.30;99.90
2999;DHT22;1509;51.964;7.628;2023-11-18T16:10:25;6.30;99.90
2999;DHT22;1509;51.964;7.628;2023-11-18T16:12:53;6.30;99.90
2999;DHT22;1509;51.964;7.628;2023-11-18T16:15:21;6.30;99.90
2999;DHT22;1509;51.964;7.628;2023-11-18T16:17:51;6.30;99.90
2999;DHT22;1509;51.964;7.628;2023-11-18T16:20:18;6.30;99.90
2999;DHT22;1509;51.964;7.628;2023-11-18T16:22:49;6.30;99.90
2999;DHT22;1509;51.964;7.628;2023-11-18T16:27:50;6.20;99.90
2999;DHT22;1509;51.964;7.628;2023-11-18T16:30:16;6.20;99.90
2999;DHT22;1509;51.964;7.628;2023-11-18T16:32:43;6.20;99.90
2999;DHT22;1509;51.964;7.628;2023-11-18T16:35:09;6.20;99.90
2999;DHT22;1509;51.964;7.628;2023-11-18T16:37:41;6.20;99.90
2999;DHT22;1509;51.964;7.628;2023-11-18T16:40:08;6.20;99.90
2999;DHT22;1509;51.964;7.628;2023-11-18T16:42:40;6.20;99.90
2999;DHT22;1509;51.964;7.628;2023-11-18T16:45:06;6.10;99.90
2999;DHT22;1509;51.964;7.628;2023-11-18T16:47:37;6.10;99.90